Time;durP1;ratioP1;P1;durP2;ratioP2;P2;SDS_P1;SDS_P2;PMS_P1;PMS_P2;Temp;Humidity;BMP_temperature;BMP_pressure;BME280_temperature;BME280_humidity;BME280_pressure;Samples;Min_cycle;Max_cycle;Signal;HPM_P1;HPM_P2
2022/06/07 00:01:20;;;;;;;3.25;2.95;;;18.00;76.40;;;;;;4966061;28;20389;-69
2022/06/07 00:03:46;;;;;;;4.10;3.70;;;18.00;76.30;;;;;;4983186;28;20396;-69
2022/06/07 00:06:11;;;;;;;3.60;3.20;;;18.00;76.60;;;;;;4958976;28;20019;-68
2022/06/07 00:08:37;;;;;;;4.00;3.35;;;18.00;76.60;;;;;;4966394;28;20508;-68
2022/06/07 00:11:02;;;;;;;4.45;3.50;;;18.00;76.40;;;;;;4955307;28;20030;-68
2022/06/07 00:13:28;;;;;;;3.63;3.30;;;18.10;76.60;;;;;;5017835;28;20118;-69
2022/06/07 00:15:54;;;;;;;5.38;3.42;;;18.00;76.20;;;;;;4961778;28;20027;-68
2022/06/07 00:18:19;;;;;;;4.75;3.30;;;18.10;76.40;;;;;;4968961;28;20035;-69
2022/06/07 00:20:45;;;;;;;4.45;3.17;;;18.10;76.30;;;;;;4954850;28;20019;-69
2022/06/07 00:23:14;;;;;;;4.22;3.40;;;18.10;76.00;;;;;;4971069;28;20042;-68
2022/06/07 00:25:41;;;;;;;4.05;3.20;;;18.10;76.10;;;;;;4963024;28;20027;-68
2022/06/07 00:28:07;;;;;;;4.13;3.28;;;18.20;76.20;;;;;;4997077;28;20042;-68
2022/06/07 00:30:34;;;;;;;6.80;3.70;;;18.10;76.00;;;;;;4971760;28;20489;-68
2022/06/07 00:33:00;;;;;;;4.57;3.33;;;18.10;76.00;;;;;;4967261;28;20043;-68
2022/06/07 00:35:26;;;;;;;6.22;3.38;;;18.10;75.90;;;;;;4958153;28;20053;-68
2022/06/07 00:37:51;;;;;;;5.55;3.50;;;18.10;75.80;;;;;;4960454;28;20020;-68
2022/06/07 00:40:17;;;;;;;4.78;3.20;;;18.00;75.70;;;;;;4964676;28;20097;-68
2022/06/07 00:42:43;;;;;;;3.78;3.30;;;18.00;75.90;;;;;;4964924;28;20439;-69
2022/06/07 00:45:18;;;;;;;4.18;3.70;;;18.00;76.30;;;;;;4966749;28;20477;-68
2022/06/07 00:47:44;;;;;;;5.03;3.30;;;18.00;76.50;;;;;;4981063;28;20027;-68
2022/06/07 00:50:37;;;;;;;4.50;3.45;;;17.90;76.40;;;;;;4958638;28;20060;-69
2022/06/07 00:53:05;;;;;;;10.82;3.75;;;17.80;76.80;;;;;;4967382;28;20666;-68
2022/06/07 00:55:30;;;;;;;5.85;3.70;;;17.70;77.20;;;;;;4958161;28;20038;-69
2022/06/07 00:57:57;;;;;;;5.68;3.33;;;17.70;77.20;;;;;;4966509;28;20015;-68
2022/06/07 01:00:24;;;;;;;4.35;3.55;;;17.60;77.70;;;;;;4970355;28;20050;-68
2022/06/07 01:02:51;;;;;;;7.68;3.80;;;17.50;77.40;;;;;;4968715;28;20492;-68
2022/06/07 01:05:17;;;;;;;4.80;3.75;;;17.50;77.40;;;;;;4956451;28;20045;-68
2022/06/07 01:10:45;;;;;;;4.20;3.53;;;17.40;77.60;;;;;;4965609;28;20549;-68
2022/06/07 01:13:12;;;;;;;4.60;3.30;;;17.40;77.70;;;;;;4955072;28;20101;-69
2022/06/07 01:15:38;;;;;;;4.47;3.55;;;17.40;77.80;;;;;;5036384;28;20019;-68
2022/06/07 01:18:05;;;;;;;3.83;3.50;;;17.40;77.60;;;;;;4967965;28;20030;-69
2022/06/07 01:20:31;;;;;;;6.07;3.72;;;17.40;77.60;;;;;;4954498;28;20072;-68
2022/06/07 01:22:57;;;;;;;4.85;3.40;;;17.40;77.60;;;;;;4969105;28;20106;-68
2022/06/07 01:25:23;;;;;;;4.63;3.10;;;17.40;77.40;;;;;;4963938;28;20031;-68
2022/06/07 01:27:49;;;;;;;4.97;3.80;;;17.50;76.30;;;;;;4984029;28;20038;-68
2022/06/07 01:30:14;;;;;;;4.13;3.20;;;17.60;75.70;;;;;;4957276;28;20513;-69
2022/06/07 01:32:40;;;;;;;4.43;3.40;;;17.60;75.00;;;;;;4966477;28;20031;-68
2022/06/07 01:35:07;;;;;;;6.47;3.65;;;17.70;73.90;;;;;;4954500;28;20408;-69
2022/06/07 01:37:33;;;;;;;3.53;3.00;;;17.80;73.60;;;;;;4961779;28;20111;-69
2022/06/07 01:42:43;;;;;;;7.03;3.92;;;17.90;73.00;;;;;;4954144;28;20057;-68
2022/06/07 01:45:09;;;;;;;4.53;3.17;;;17.90;72.80;;;;;;4965895;28;20087;-67
2022/06/07 01:47:35;;;;;;;4.45;3.50;;;17.80;72.90;;;;;;4957389;28;20122;-68
2022/06/07 01:50:02;;;;;;;5.90;3.33;;;17.70;73.40;;;;;;4991916;28;20077;-68
2022/06/07 01:52:31;;;;;;;5.30;3.45;;;17.80;73.80;;;;;;5012371;28;20501;-68
2022/06/07 01:54:57;;;;;;;8.48;3.42;;;17.80;73.30;;;;;;4955116;28;20035;-67
2022/06/07 01:57:23;;;;;;;5.07;3.22;;;17.80;74.20;;;;;;4963019;28;20035;-67
2022/06/07 01:59:49;;;;;;;4.55;3.20;;;17.70;74.30;;;;;;4984976;28;20437;-67
2022/06/07 02:02:15;;;;;;;4.80;3.33;;;17.70;74.90;;;;;;4982032;28;20031;-67
2022/06/07 02:04:42;;;;;;;5.20;3.05;;;17.70;74.90;;;;;;4965983;28;20027;-68
2022/06/07 02:07:10;;;;;;;5.13;3.53;;;17.70;75.00;;;;;;4956168;28;20023;-66
2022/06/07 02:09:36;;;;;;;4.70;2.72;;;17.70;74.90;;;;;;4961460;28;20046;-67
2022/06/07 02:12:02;;;;;;;5.57;3.00;;;17.60;75.10;;;;;;4961414;28;20054;-67
2022/06/07 02:14:29;;;;;;;4.68;2.97;;;17.60;75.50;;;;;;4954529;28;20077;-67
2022/06/07 02:16:55;;;;;;;4.57;3.30;;;17.60;75.20;;;;;;4966925;28;20033;-67
2022/06/07 02:19:21;;;;;;;4.07;3.08;;;17.60;74.90;;;;;;5017759;28;20027;-67
2022/06/07 02:21:47;;;;;;;4.25;3.65;;;17.70;74.60;;;;;;4959375;28;20027;-68
2022/06/07 02:24:13;;;;;;;5.43;3.15;;;17.70;74.70;;;;;;4969323;28;20064;-67
2022/06/07 02:26:50;;;;;;;3.55;2.88;;;17.60;74.80;;;;;;4953162;28;20043;-67
2022/06/07 02:29:25;;;;;;;3.30;3.00;;;17.50;75.40;;;;;;4963451;28;20119;-67
2022/06/07 02:32:05;;;;;;;3.47;3.10;;;17.40;75.60;;;;;;4961715;28;20030;-67
2022/06/07 02:34:33;;;;;;;3.58;3.10;;;17.30;75.60;;;;;;4973112;28;20584;-68
2022/06/07 02:37:03;;;;;;;5.60;2.95;;;17.30;75.50;;;;;;4969026;28;20058;-67
2022/06/07 02:39:30;;;;;;;4.07;2.90;;;17.30;75.50;;;;;;4960094;28;20549;-67
2022/06/07 02:41:58;;;;;;;4.22;3.15;;;17.30;75.80;;;;;;4962036;28;20114;-67
2022/06/07 02:44:23;;;;;;;3.78;3.00;;;17.30;75.80;;;;;;4967646;28;20042;-67
2022/06/07 02:46:49;;;;;;;4.45;2.83;;;17.20;75.90;;;;;;4956289;28;20726;-67
2022/06/07 02:49:14;;;;;;;3.80;3.15;;;17.30;75.90;;;;;;4966743;28;20149;-67
2022/06/07 02:51:40;;;;;;;3.65;2.72;;;17.20;76.20;;;;;;4983195;28;20023;-67
2022/06/07 02:54:06;;;;;;;3.63;2.83;;;17.20;76.20;;;;;;4960394;28;20463;-67
2022/06/07 02:56:31;;;;;;;5.15;2.95;;;17.50;75.10;;;;;;4968523;28;20023;-67
2022/06/07 02:58:57;;;;;;;3.80;2.75;;;17.50;75.10;;;;;;4963694;28;20443;-67
2022/06/07 03:01:23;;;;;;;3.33;3.00;;;17.50;74.60;;;;;;5039008;28;20029;-67
2022/06/07 03:03:48;;;;;;;199.52;123.18;;;17.50;74.20;;;;;;4962747;28;20094;-69
2022/06/07 03:06:14;;;;;;;106.55;62.47;;;17.60;74.70;;;;;;4966287;28;20113;-68
2022/06/07 03:08:39;;;;;;;18.42;10.45;;;17.70;74.70;;;;;;4955379;28;20043;-68
2022/06/07 03:11:05;;;;;;;6.95;3.97;;;17.80;74.60;;;;;;4968303;28;20031;-67
2022/06/07 03:13:31;;;;;;;18.83;11.70;;;17.90;74.20;;;;;;4960272;28;20369;-69
2022/06/07 03:15:57;;;;;;;21.95;11.27;;;17.90;74.00;;;;;;4995733;28;20081;-68
2022/06/07 03:18:22;;;;;;;247.73;142.57;;;18.00;73.00;;;;;;4966137;28;20094;-69
2022/06/07 03:20:51;;;;;;;119.78;60.45;;;18.20;72.60;;;;;;4955853;28;20051;-68
2022/06/07 03:23:16;;;;;;;3.92;3.30;;;18.30;73.10;;;;;;4972281;28;20389;-68
2022/06/07 03:25:42;;;;;;;3.38;3.08;;;18.20;72.30;;;;;;4963213;28;20027;-68
2022/06/07 03:28:09;;;;;;;13.98;6.03;;;18.10;72.00;;;;;;4964202;28;20054;-69
2022/06/07 03:30:34;;;;;;;4.40;3.30;;;18.10;72.90;;;;;;4969086;28;20035;-69
2022/06/07 03:33:00;;;;;;;8.55;4.95;;;18.00;73.40;;;;;;4955992;28;20031;-69
2022/06/07 03:35:26;;;;;;;8.75;4.90;;;17.90;73.40;;;;;;5038768;28;20031;-68
2022/06/07 03:37:55;;;;;;;16.20;7.70;;;18.00;74.10;;;;;;4998008;28;20030;-68
2022/06/07 03:43:06;;;;;;;6.97;3.60;;;18.00;73.70;;;;;;4955788;28;20041;-68
2022/06/07 03:45:32;;;;;;;5.53;3.60;;;18.00;72.90;;;;;;4971779;28;20038;-68
2022/06/07 03:47:58;;;;;;;4.90;3.35;;;18.10;72.30;;;;;;4959751;28;20035;-68
2022/06/07 03:50:23;;;;;;;3.30;3.00;;;18.10;72.50;;;;;;5013319;28;20031;-68
2022/06/07 03:52:49;;;;;;;3.10;2.75;;;18.10;72.40;;;;;;4955234;28;20708;-69
2022/06/07 03:55:15;;;;;;;4.00;2.65;;;18.10;72.80;;;;;;4966008;28;20042;-68
2022/06/07 03:57:40;;;;;;;5.57;3.70;;;18.20;73.10;;;;;;4960139;28;20112;-68
2022/06/07 04:00:07;;;;;;;4.35;3.17;;;18.20;72.70;;;;;;4958798;28;20435;-68
2022/06/07 04:02:33;;;;;;;4.70;3.53;;;18.00;73.30;;;;;;4967795;28;20038;-68
2022/06/07 04:04:59;;;;;;;3.90;3.50;;;17.90;73.80;;;;;;4955114;28;20072;-68
2022/06/07 04:10:09;;;;;;;4.78;3.50;;;17.80;74.90;;;;;;4965612;28;20050;-67
2022/06/07 04:12:35;;;;;;;7.30;3.20;;;17.80;75.10;;;;;;4955049;28;20133;-68
2022/06/07 04:15:01;;;;;;;4.65;3.45;;;17.90;74.90;;;;;;4967467;28;20036;-68
2022/06/07 04:17:27;;;;;;;5.35;3.33;;;17.90;74.70;;;;;;4957770;28;20453;-68
2022/06/07 04:19:53;;;;;;;3.65;3.20;;;17.90;74.80;;;;;;4997060;28;20032;-67
2022/06/07 04:22:18;;;;;;;12.02;4.03;;;18.00;74.90;;;;;;4965600;28;20027;-67
2022/06/07 04:24:44;;;;;;;7.35;3.45;;;18.00;74.90;;;;;;5036155;28;20035;-67
2022/06/07 04:27:10;;;;;;;5.05;3.13;;;18.10;74.90;;;;;;4955960;28;20030;-68
2022/06/07 04:29:36;;;;;;;7.70;3.45;;;;;;;;;;4962554;28;20474;-67
2022/06/07 04:32:02;;;;;;;5.45;3.03;;;18.60;73.50;;;;;;4963653;28;20464;-68
2022/06/07 04:34:28;;;;;;;7.05;3.97;;;18.90;72.80;;;;;;4955706;28;20089;-68
2022/06/07 04:36:54;;;;;;;4.63;3.80;;;19.10;72.10;;;;;;5031138;28;20039;-69
2022/06/07 04:39:19;;;;;;;4.30;3.05;;;19.50;71.40;;;;;;4956820;28;20246;-68
2022/06/07 04:41:45;;;;;;;4.18;2.88;;;19.70;70.40;;;;;;4961231;28;20015;-68
2022/06/07 04:44:11;;;;;;;4.00;3.03;;;19.50;70.60;;;;;;4964498;28;20149;-68
2022/06/07 04:46:36;;;;;;;4.05;3.28;;;19.30;70.80;;;;;;4965704;28;20024;-68
2022/06/07 04:49:02;;;;;;;3.85;3.00;;;19.20;71.20;;;;;;4966370;28;20106;-69
2022/06/07 04:51:31;;;;;;;5.57;3.15;;;19.40;70.40;;;;;;4958713;28;20019;-68
2022/06/07 04:53:58;;;;;;;8.57;3.40;;;19.40;70.60;;;;;;4958868;28;20039;-68
2022/06/07 04:56:35;;;;;;;4.32;2.92;;;19.40;69.80;;;;;;4964912;28;20031;-69
2022/06/07 04:59:02;;;;;;;4.22;3.05;;;19.40;70.30;;;;;;5023309;28;20037;-68
2022/06/07 05:01:32;;;;;;;6.57;3.03;;;19.40;70.30;;;;;;4970465;28;20111;-68
2022/06/07 05:03:59;;;;;;;3.65;3.35;;;19.40;69.90;;;;;;4959155;28;20031;-68
2022/06/07 05:06:34;;;;;;;4.30;2.85;;;19.30;70.30;;;;;;5013672;28;20027;-69
2022/06/07 05:09:03;;;;;;;3.10;2.80;;;19.40;68.50;;;;;;4953471;28;20035;-68
2022/06/07 05:11:30;;;;;;;4.60;2.95;;;19.40;67.80;;;;;;4970287;28;20023;-70
2022/06/07 05:13:59;;;;;;;3.10;2.80;;;19.50;67.70;;;;;;4992806;28;20027;-69
2022/06/07 05:16:25;;;;;;;3.03;2.67;;;19.60;67.30;;;;;;4965777;28;20499;-69
2022/06/07 05:18:53;;;;;;;5.35;3.00;;;19.70;67.40;;;;;;5025734;28;20073;-69
2022/06/07 05:21:19;;;;;;;4.00;2.80;;;19.90;67.40;;;;;;4957195;28;20110;-69
2022/06/07 05:23:45;;;;;;;4.00;2.63;;;;;;;;;;4969912;28;20477;-66
2022/06/07 05:26:33;;;;;;;12.05;4.47;;;20.50;65.00;;;;;;4956703;28;20039;-70
2022/06/07 05:28:59;;;;;;;7.18;3.13;;;20.40;65.20;;;;;;4964856;28;20137;-69
2022/06/07 05:31:25;;;;;;;5.78;3.70;;;20.00;66.50;;;;;;4972169;28;20039;-69
2022/06/07 05:33:52;;;;;;;4.90;3.25;;;19.60;67.00;;;;;;4959494;28;20035;-68
2022/06/07 05:36:18;;;;;;;6.47;3.70;;;19.70;67.20;;;;;;4964424;28;20072;-68
2022/06/07 05:38:44;;;;;;;5.38;3.35;;;19.60;67.80;;;;;;4952302;28;20023;-68
2022/06/07 05:41:24;;;;;;;8.20;3.47;;;19.60;68.20;;;;;;4964704;28;20451;-68
2022/06/07 05:43:51;;;;;;;6.90;3.53;;;19.70;67.90;;;;;;4989308;28;20027;-73
2022/06/07 05:46:16;;;;;;;4.90;3.17;;;20.00;66.40;;;;;;4957677;28;20283;-72
2022/06/07 05:48:42;;;;;;;10.27;3.47;;;20.20;65.50;;;;;;4955624;28;20039;-72
2022/06/07 05:51:07;;;;;;;7.13;3.45;;;20.00;66.70;;;;;;4955382;28;20037;-72
2022/06/07 05:53:33;;;;;;;6.00;3.30;;;20.00;67.50;;;;;;4969777;28;20048;-73
2022/06/07 05:56:11;;;;;;;10.73;3.50;;;19.90;67.60;;;;;;4969142;28;20050;-75
2022/06/07 05:58:37;;;;;;;5.65;3.70;;;19.60;67.90;;;;;;4954296;28;20433;-74
2022/06/07 06:01:04;;;;;;;4.75;3.20;;;19.50;68.50;;;;;;5027237;28;20062;-74
2022/06/07 06:03:30;;;;;;;10.10;3.60;;;19.40;68.70;;;;;;4963281;28;20030;-73
2022/06/07 06:05:55;;;;;;;7.47;3.42;;;19.50;68.60;;;;;;4959713;28;20027;-79
2022/06/07 06:11:27;;;;;;;6.97;4.10;;;19.70;67.80;;;;;;4989601;28;20489;-77
2022/06/07 06:13:53;;;;;;;8.25;3.90;;;19.70;67.80;;;;;;4990058;28;20447;-77
2022/06/07 06:16:21;;;;;;;5.63;3.65;;;19.90;67.30;;;;;;4980538;28;20117;-75
2022/06/07 06:18:50;;;;;;;7.80;3.15;;;20.00;68.10;;;;;;4969063;28;20442;-74
2022/06/07 06:21:17;;;;;;;9.05;3.65;;;20.10;66.80;;;;;;5020558;28;20027;-75
2022/06/07 06:23:43;;;;;;;7.15;3.50;;;20.40;67.20;;;;;;5037375;28;20023;-76
2022/06/07 06:26:20;;;;;;;6.25;3.45;;;20.60;66.80;;;;;;4961540;28;20027;-78
2022/06/07 06:28:46;;;;;;;6.88;3.53;;;20.80;66.80;;;;;;5020171;28;20030;-76
2022/06/07 06:31:13;;;;;;;4.07;2.90;;;20.90;65.60;;;;;;4957585;28;20022;-75
2022/06/07 06:33:45;;;;;;;6.47;3.22;;;21.00;64.90;;;;;;4965676;28;20105;-75
2022/06/07 06:36:14;;;;;;;3.03;2.72;;;21.00;62.90;;;;;;4964973;28;20030;-74
2022/06/07 06:38:40;;;;;;;7.35;3.58;;;20.90;65.80;;;;;;4961022;28;20019;-75
2022/06/07 06:41:10;;;;;;;8.95;2.83;;;20.90;65.30;;;;;;4977745;28;20057;-74
2022/06/07 06:43:36;;;;;;;8.38;4.20;;;21.00;64.20;;;;;;4968352;28;20018;-71
2022/06/07 06:46:06;;;;;;;6.30;4.03;;;21.10;64.80;;;;;;5007646;28;20034;-73
2022/06/07 06:48:32;;;;;;;4.82;2.88;;;21.10;65.90;;;;;;5016805;28;20030;-73
2022/06/07 06:51:04;;;;;;;4.68;3.20;;;21.10;64.40;;;;;;4963748;28;20039;-74
2022/06/07 06:53:30;;;;;;;5.90;3.70;;;21.20;63.40;;;;;;4972128;28;20024;-73
2022/06/07 06:55:56;;;;;;;3.53;2.85;;;21.40;63.30;;;;;;4960564;28;20031;-73
2022/06/07 06:58:25;;;;;;;15.80;9.32;;;21.40;62.10;;;;;;4967719;28;20209;-73
2022/06/07 07:01:02;;;;;;;11.60;6.47;;;21.70;62.20;;;;;;4967376;28;20069;-75
2022/06/07 07:03:28;;;;;;;5.32;2.75;;;21.90;60.20;;;;;;5035275;28;20515;-74
2022/06/07 07:05:56;;;;;;;11.60;7.00;;;22.00;59.90;;;;;;4959312;28;20073;-74
2022/06/07 07:08:25;;;;;;;6.10;2.95;;;22.00;60.10;;;;;;4961394;28;20038;-74
2022/06/07 07:11:04;;;;;;;5.72;3.65;;;22.00;60.70;;;;;;4952727;28;20027;-76
2022/06/07 07:13:30;;;;;;;3.97;2.30;;;22.00;59.60;;;;;;4962714;28;20062;-74
2022/06/07 07:15:56;;;;;;;3.58;2.65;;;22.10;59.70;;;;;;4958588;28;20210;-74
2022/06/07 07:18:21;;;;;;;6.72;4.82;;;22.40;59.50;;;;;;4956031;28;20030;-74
2022/06/07 07:20:47;;;;;;;16.08;8.60;;;22.50;58.10;;;;;;4969168;28;20101;-75
2022/06/07 07:23:13;;;;;;;4.53;3.13;;;22.80;57.40;;;;;;4958287;28;20015;-73
2022/06/07 07:25:41;;;;;;;12.73;7.97;;;;;;;;;;4965999;28;20101;-80
2022/06/07 07:28:07;;;;;;;9.40;7.63;;;;;;;;;;4963756;28;20153;-74
2022/06/07 07:30:34;;;;;;;274.55;179.23;;;;;;;;;;4970913;28;20062;-69
2022/06/07 07:33:00;;;;;;;23.20;13.80;;;;;;;;;;4970379;28;20054;-68
2022/06/07 07:35:26;;;;;;;248.85;186.80;;;;;;;;;;4970766;28;20026;-69
2022/06/07 07:37:52;;;;;;;18.65;12.75;;;;;;;;;;4969856;28;20094;-70
2022/06/07 07:40:18;;;;;;;6.88;4.63;;;27.20;45.70;;;;;;4970574;28;20427;-70
2022/06/07 07:42:44;;;;;;;72.57;56.92;;;27.30;45.20;;;;;;4970972;28;20027;-68
2022/06/07 07:45:12;;;;;;;9.40;6.35;;;27.40;43.70;;;;;;4970674;28;20025;-68
2022/06/07 07:47:38;;;;;;;27.88;19.05;;;27.10;44.40;;;;;;4970004;28;20023;-69
2022/06/07 07:50:04;;;;;;;6.18;4.03;;;26.80;45.60;;;;;;5035943;28;20045;-69
2022/06/07 07:52:29;;;;;;;12.82;8.30;;;26.80;43.00;;;;;;5035496;28;20546;-70
2022/06/07 07:54:55;;;;;;;14.23;9.70;;;26.50;44.30;;;;;;4969063;28;20027;-69
2022/06/07 07:57:20;;;;;;;4.32;3.33;;;26.30;44.40;;;;;;4983386;28;20017;-67
2022/06/07 07:59:46;;;;;;;28.67;17.58;;;26.50;44.00;;;;;;5001544;28;20397;-69
2022/06/07 08:02:21;;;;;;;10.18;6.47;;;26.50;44.60;;;;;;4967325;28;20023;-71
2022/06/07 08:04:47;;;;;;;11.73;3.45;;;26.80;43.80;;;;;;4953440;28;20032;-70
2022/06/07 08:07:13;;;;;;;45.00;30.92;;;27.20;42.30;;;;;;4951609;28;20027;-72
2022/06/07 08:09:39;;;;;;;23.10;16.05;;;27.20;43.40;;;;;;4952159;28;20141;-68
2022/06/07 08:12:08;;;;;;;6.93;4.82;;;27.20;42.60;;;;;;4952211;28;20502;-68
2022/06/07 08:14:35;;;;;;;5.38;2.88;;;26.90;41.80;;;;;;4955940;28;20030;-69
2022/06/07 08:17:02;;;;;;;16.23;12.23;;;26.40;42.70;;;;;;4952922;28;20066;-68
2022/06/07 08:19:28;;;;;;;5.43;2.90;;;26.20;43.20;;;;;;4951800;28;20016;-69
2022/06/07 08:21:53;;;;;;;9.80;7.00;;;25.50;44.70;;;;;;4952083;28;20469;-69
2022/06/07 08:24:19;;;;;;;2.42;2.22;;;25.70;45.90;;;;;;4951619;28;20481;-71
2022/06/07 08:26:48;;;;;;;12.82;9.32;;;26.50;43.10;;;;;;4953466;28;20027;-69
2022/06/07 08:29:15;;;;;;;12.70;9.30;;;26.90;43.30;;;;;;4950711;28;20027;-70
2022/06/07 08:31:41;;;;;;;11.63;6.15;;;27.50;42.40;;;;;;4951949;28;20719;-70
2022/06/07 08:39:37;;;;;;;9.35;6.32;;;28.50;41.70;;;;;;4951857;28;20541;-71
2022/06/07 08:42:26;;;;;;;36.53;21.52;;;27.70;43.00;;;;;;4951540;28;20452;-72
2022/06/07 08:44:56;;;;;;;38.45;26.02;;;27.30;44.80;;;;;;4951872;28;20111;-71
2022/06/07 08:47:41;;;;;;;27.52;17.63;;;26.70;45.10;;;;;;4950457;28;20019;-69
2022/06/07 08:50:22;;;;;;;8.52;3.75;;;27.00;45.50;;;;;;4951705;28;20089;-70
2022/06/07 08:52:52;;;;;;;19.73;10.38;;;27.00;43.90;;;;;;4954877;28;20030;-70
2022/06/07 08:55:24;;;;;;;16.65;8.18;;;26.90;45.20;;;;;;4969722;28;20074;-70
2022/06/07 08:57:59;;;;;;;44.08;26.00;;;27.10;44.00;;;;;;4976645;28;20031;-71
2022/06/07 09:00:31;;;;;;;11.73;7.45;;;26.60;44.50;;;;;;4960712;28;20359;-69
2022/06/07 09:03:34;;;;;;;37.45;20.33;;;26.40;44.80;;;;;;4963243;28;20539;-71
2022/06/07 09:06:03;;;;;;;14.70;8.07;;;26.20;45.80;;;;;;4963448;28;20352;-70
2022/06/07 09:08:42;;;;;;;5.93;3.22;;;26.40;45.00;;;;;;4959417;28;20035;-71
2022/06/07 09:14:04;;;;;;;81.30;43.38;;;26.30;45.70;;;;;;4954717;28;20521;-70
2022/06/07 09:16:38;;;;;;;15.45;8.85;;;26.50;45.40;;;;;;4960049;28;20054;-70
2022/06/07 09:19:09;;;;;;;62.00;33.75;;;25.90;45.30;;;;;;4956574;28;20037;-72
2022/06/07 09:21:42;;;;;;;31.50;15.73;;;25.70;47.10;;;;;;4962565;28;20540;-70
2022/06/07 09:24:13;;;;;;;56.33;30.95;;;;;;;;;;4962080;28;20019;-72
2022/06/07 09:26:41;;;;;;;71.78;40.25;;;;;;;;;;4960306;28;20031;-71
2022/06/07 09:29:21;;;;;;;6.47;3.20;;;24.70;50.20;;;;;;4962469;28;20022;-71
2022/06/07 09:31:48;;;;;;;4.30;2.47;;;24.60;50.50;;;;;;4966317;28;20050;-69
2022/06/07 09:34:34;;;;;;;46.30;23.92;;;24.60;50.90;;;;;;4967109;28;20456;-70
2022/06/07 09:37:05;;;;;;;11.77;7.35;;;24.60;51.20;;;;;;5029551;28;20092;-71
2022/06/07 09:39:41;;;;;;;18.15;10.93;;;24.60;50.70;;;;;;4963612;28;20027;-70
2022/06/07 09:42:16;;;;;;;7.57;3.47;;;24.50;50.20;;;;;;4961367;28;20060;-70
2022/06/07 09:44:58;;;;;;;28.23;15.68;;;24.30;51.00;;;;;;4960370;28;20041;-68
2022/06/07 09:47:25;;;;;;;20.00;11.38;;;24.30;50.50;;;;;;4961208;28;20019;-69
2022/06/07 09:50:19;;;;;;;12.23;6.57;;;24.30;49.80;;;;;;4959410;28;20043;-70
2022/06/07 09:52:46;;;;;;;4.43;2.90;;;24.10;49.80;;;;;;4965967;28;20449;-69
2022/06/07 09:55:15;;;;;;;33.13;17.05;;;23.90;49.30;;;;;;4960239;28;20018;-69
2022/06/07 09:57:51;;;;;;;14.68;8.00;;;23.90;50.20;;;;;;4962469;28;20031;-70
2022/06/07 10:00:17;;;;;;;3.20;2.15;;;23.90;49.80;;;;;;4960547;28;20027;-68
2022/06/07 10:03:02;;;;;;;14.32;8.68;;;23.80;49.30;;;;;;4960145;28;20098;-66
2022/06/07 10:05:31;;;;;;;11.75;3.53;;;23.80;48.50;;;;;;4963660;28;20110;-69
2022/06/07 10:08:27;;;;;;;4.38;2.00;;;23.80;48.70;;;;;;4962613;28;20030;-68
2022/06/07 10:11:04;;;;;;;11.45;5.53;;;23.90;48.70;;;;;;4961297;28;20034;-71
2022/06/07 10:13:48;;;;;;;7.70;3.70;;;24.00;48.70;;;;;;4968891;28;20039;-70
2022/06/07 10:16:32;;;;;;;3.95;1.83;;;24.20;48.20;;;;;;4968102;28;20090;-71
2022/06/07 10:19:47;;;;;;;5.25;2.25;;;24.20;47.90;;;;;;4967691;28;20037;-70
2022/06/07 10:22:24;;;;;;;4.28;2.67;;;24.10;48.30;;;;;;4988542;28;20061;-70
2022/06/07 10:25:11;;;;;;;4.15;2.17;;;24.50;47.70;;;;;;4970365;28;20566;-71
2022/06/07 10:27:42;;;;;;;4.45;1.70;;;24.60;47.10;;;;;;4967637;28;20053;-70
2022/06/07 10:30:36;;;;;;;2.85;1.92;;;24.70;47.30;;;;;;4967493;28;20027;-71
2022/06/07 10:33:20;;;;;;;4.60;1.42;;;24.90;46.40;;;;;;4967802;28;20027;-71
2022/06/07 10:36:11;;;;;;;5.30;2.85;;;24.90;46.10;;;;;;4968036;28;20427;-71
2022/06/07 10:38:40;;;;;;;4.68;1.88;;;24.80;46.80;;;;;;5034480;28;20023;-74
2022/06/07 10:41:32;;;;;;;4.43;2.10;;;24.50;46.60;;;;;;4967968;28;20050;-71
2022/06/07 10:44:03;;;;;;;;;;;24.50;48.40;;;;;;5036309;28;20027;-71
2022/06/07 10:46:29;;;;;;;3.22;1.83;;;24.40;47.70;;;;;;5035875;28;19906;-72
2022/06/07 10:49:19;;;;;;;4.97;1.88;;;24.40;47.80;;;;;;4968344;28;20122;-71
2022/06/07 10:55:16;;;;;;;2.20;1.42;;;24.60;47.40;;;;;;4972181;28;20424;-71
2022/06/07 10:57:51;;;;;;;4.80;1.60;;;24.40;46.90;;;;;;5009943;28;20036;-71
2022/06/07 11:00:35;;;;;;;3.13;1.50;;;24.50;47.30;;;;;;5029754;28;20089;-70
2022/06/07 11:03:38;;;;;;;1.70;1.17;;;24.40;46.80;;;;;;4963823;28;20026;-71
2022/06/07 11:09:27;;;;;;;4.72;1.45;;;24.60;45.80;;;;;;4970971;28;20060;-71
2022/06/07 11:11:57;;;;;;;3.53;1.83;;;24.60;45.80;;;;;;4971384;28;20487;-70
2022/06/07 11:14:38;;;;;;;3.78;1.40;;;24.90;45.80;;;;;;4972084;28;20110;-71
2022/06/07 11:17:23;;;;;;;3.15;1.52;;;25.10;44.50;;;;;;4971843;28;20217;-70
2022/06/07 11:19:51;;;;;;;2.80;1.42;;;25.50;43.80;;;;;;4972483;28;20187;-71
2022/06/07 11:22:19;;;;;;;4.10;1.55;;;25.50;44.00;;;;;;4971830;28;20023;-70
2022/06/07 11:24:59;;;;;;;2.50;1.40;;;25.70;43.40;;;;;;4972144;28;20481;-70
2022/06/07 11:27:27;;;;;;;2.35;1.38;;;25.90;43.10;;;;;;4970451;28;20118;-71
2022/06/07 11:30:23;;;;;;;3.30;1.80;;;26.00;41.80;;;;;;5030124;28;20132;-70
2022/06/07 11:32:51;;;;;;;7.40;3.95;;;26.00;42.50;;;;;;5020202;28;20024;-69
2022/06/07 11:35:44;;;;;;;8.15;4.03;;;25.90;43.60;;;;;;4964776;28;20030;-70
2022/06/07 11:38:18;;;;;;;4.15;2.38;;;25.50;43.50;;;;;;4964028;28;20037;-72
2022/06/07 11:40:46;;;;;;;5.18;2.22;;;25.20;43.60;;;;;;5054907;28;20490;-70
2022/06/07 11:43:49;;;;;;;3.75;1.70;;;25.20;44.20;;;;;;4998518;28;20215;-70
2022/06/07 11:46:40;;;;;;;3.95;2.20;;;25.20;44.10;;;;;;4961391;28;20061;-69
2022/06/07 11:49:24;;;;;;;;;;;25.50;45.10;;;;;;4971027;28;20053;-70
2022/06/07 11:52:11;;;;;;;2.13;1.50;;;25.70;44.80;;;;;;4961055;28;19917;-69
2022/06/07 11:54:40;;;;;;;17.23;12.73;;;25.70;43.30;;;;;;4961430;28;20514;-70
2022/06/07 11:57:31;;;;;;;58.33;34.90;;;26.00;44.00;;;;;;5037425;28;20030;-69
2022/06/07 12:00:17;;;;;;;20.83;12.45;;;26.40;43.70;;;;;;4956306;28;20023;-70
2022/06/07 12:03:01;;;;;;;5.28;2.40;;;26.90;41.50;;;;;;4971293;28;20093;-70
2022/06/07 12:05:31;;;;;;;9.93;6.80;;;27.10;41.10;;;;;;4975179;28;20050;-71
2022/06/07 12:08:22;;;;;;;46.90;28.70;;;27.10;40.60;;;;;;4989039;28;20467;-72
2022/06/07 12:11:23;;;;;;;50.95;30.92;;;27.00;42.20;;;;;;4968053;28;20377;-72
2022/06/07 12:14:17;;;;;;;3.38;2.08;;;26.90;41.70;;;;;;4971369;28;20033;-69
2022/06/07 12:16:52;;;;;;;2.28;1.55;;;26.40;41.90;;;;;;4969246;28;20104;-69
2022/06/07 12:19:32;;;;;;;5.05;2.47;;;25.90;42.80;;;;;;4970020;28;20015;-70
2022/06/07 12:22:01;;;;;;;18.45;8.45;;;25.90;43.40;;;;;;4956164;28;20077;-68
2022/06/07 12:24:36;;;;;;;2.78;1.55;;;26.10;43.60;;;;;;4970487;28;20027;-69
2022/06/07 12:27:30;;;;;;;25.90;15.98;;;25.10;43.80;;;;;;4957145;28;20039;-69
2022/06/07 12:30:02;;;;;;;8.20;2.80;;;25.00;46.10;;;;;;4968158;28;20034;-68
2022/06/07 12:32:34;;;;;;;6.40;1.98;;;25.00;44.20;;;;;;4962436;28;20398;-69
2022/06/07 12:35:08;;;;;;;4.45;1.50;;;25.30;44.10;;;;;;4964312;28;20595;-67
2022/06/07 12:37:36;;;;;;;5.78;3.97;;;25.70;43.30;;;;;;4969220;28;20023;-67
2022/06/07 12:40:02;;;;;;;13.82;9.32;;;26.30;42.50;;;;;;4970274;28;20030;-69
2022/06/07 12:42:32;;;;;;;7.13;4.30;;;26.70;41.90;;;;;;4978432;28;20023;-67
2022/06/07 12:45:18;;;;;;;7.22;1.88;;;27.00;40.30;;;;;;5013556;28;20117;-68
2022/06/07 12:47:44;;;;;;;13.85;8.68;;;26.80;39.70;;;;;;4961595;28;20037;-70
2022/06/07 12:50:24;;;;;;;4.20;1.27;;;26.70;40.30;;;;;;4968480;28;20036;-70
2022/06/07 12:52:52;;;;;;;3.58;1.30;;;25.90;40.90;;;;;;4964237;28;20138;-68
2022/06/07 12:55:23;;;;;;;6.43;3.08;;;25.50;41.60;;;;;;4968647;28;20031;-69
2022/06/07 12:57:53;;;;;;;18.60;14.20;;;25.60;43.30;;;;;;4986289;28;20449;-70
2022/06/07 13:00:26;;;;;;;119.43;77.07;;;26.20;42.00;;;;;;5027266;28;20367;-70
2022/06/07 13:03:00;;;;;;;5.07;3.00;;;26.70;40.50;;;;;;4977680;28;20072;-72
2022/06/07 13:05:36;;;;;;;4.60;1.58;;;26.90;38.70;;;;;;5020644;28;20031;-70
2022/06/07 13:08:13;;;;;;;95.47;52.40;;;26.00;40.30;;;;;;4968164;28;20408;-73
2022/06/07 13:10:39;;;;;;;173.15;104.85;;;26.00;41.80;;;;;;4968147;28;20034;-69
2022/06/07 13:13:16;;;;;;;4.18;1.50;;;26.00;41.70;;;;;;4955731;28;20028;-72
2022/06/07 13:16:08;;;;;;;4.25;1.55;;;25.70;40.60;;;;;;4964516;28;20531;-73
2022/06/07 13:18:38;;;;;;;3.40;1.80;;;25.20;42.30;;;;;;4958068;28;20038;-72
2022/06/07 13:21:25;;;;;;;3.60;1.88;;;25.20;42.10;;;;;;4955343;28;20030;-72
2022/06/07 13:23:54;;;;;;;7.38;1.63;;;24.90;43.20;;;;;;4953198;28;20080;-71
2022/06/07 13:26:40;;;;;;;2.25;1.25;;;24.60;42.70;;;;;;5035249;28;20033;-72
2022/06/07 13:29:22;;;;;;;2.03;1.20;;;24.10;43.10;;;;;;4963364;28;20031;-72
2022/06/07 13:31:48;;;;;;;5.15;1.60;;;23.30;44.90;;;;;;4968077;28;20019;-72
2022/06/07 13:34:28;;;;;;;3.90;2.10;;;23.20;45.90;;;;;;4968695;28;20038;-74